sensor_id;sensor_type;location;lat;lon;timestamp;temperature;humidity
10149;DHT22;5115;50.920;6.376;2023-05-23T00:02:19;18.00;99.90
10149;DHT22;5115;50.920;6.376;2023-05-23T00:04:44;18.00;99.90
10149;DHT22;5115;50.920;6.376;2023-05-23T00:07:10;18.00;99.90
10149;DHT22;5115;50.920;6.376;2023-05-23T00:09:35;18.00;99.90
10149;DHT22;5115;50.920;6.376;2023-05-23T00:12:02;18.00;99.90
10149;DHT22;5115;50.920;6.376;2023-05-23T00:14:28;17.90;99.90
10149;DHT22;5115;50.920;6.376;2023-05-23T00:16:58;17.90;99.90
10149;DHT22;5115;50.920;6.376;2023-05-23T00:19:25;17.80;99.90
10149;DHT22;5115;50.920;6.376;2023-05-23T00:21:50;17.70;99.90
10149;DHT22;5115;50.920;6.376;2023-05-23T00:24:18;17.70;99.90
10149;DHT22;5115;50.920;6.376;2023-05-23T00:26:45;17.60;99.90
10149;DHT22;5115;50.920;6.376;2023-05-23T00:29:10;17.60;99.90
10149;DHT22;5115;50.920;6.376;2023-05-23T00:31:41;17.50;99.90
10149;DHT22;5115;50.920;6.376;2023-05-23T00:34:07;17.60;99.90
10149;DHT22;5115;50.920;6.376;2023-05-23T00:36:33;17.50;99.90
10149;DHT22;5115;50.920;6.376;2023-05-23T00:39:02;17.50;99.90
10149;DHT22;5115;50.920;6.376;2023-05-23T00:41:29;17.40;99.90
10149;DHT22;5115;50.920;6.376;2023-05-23T00:43:56;17.40;99.90
10149;DHT22;5115;50.920;6.376;2023-05-23T00:46:26;17.50;99.90
10149;DHT22;5115;50.920;6.376;2023-05-23T00:48:53;17.30;99.90
10149;DHT22;5115;50.920;6.376;2023-05-23T00:51:19;17.30;99.90
10149;DHT22;5115;50.920;6.376;2023-05-23T00:53:45;17.30;99.90
10149;DHT22;5115;50.920;6.376;2023-05-23T00:56:11;17.20;99.90
10149;DHT22;5115;50.920;6.376;2023-05-23T00:58:38;17.20;99.90
10149;DHT22;5115;50.920;6.376;2023-05-23T01:01:07;17.10;99.90
10149;DHT22;5115;50.920;6.376;2023-05-23T01:03:32;17.10;99.90
10149;DHT22;5115;50.920;6.376;2023-05-23T01:05:58;17.00;99.90
10149;DHT22;5115;50.920;6.376;2023-05-23T01:08:25;17.10;99.90
10149;DHT22;5115;50.920;6.376;2023-05-23T01:10:53;17.10;99.90
10149;DHT22;5115;50.920;6.376;2023-05-23T01:19:30;17.00;99.90
10149;DHT22;5115;50.920;6.376;2023-05-23T01:28:05;17.20;99.90
10149;DHT22;5115;50.920;6.376;2023-05-23T01:30:35;17.10;99.90
10149;DHT22;5115;50.920;6.376;2023-05-23T01:33:03;17.00;99.90
10149;DHT22;5115;50.920;6.376;2023-05-23T01:35:30;17.10;99.90
10149;DHT22;5115;50.920;6.376;2023-05-23T01:37:57;17.10;99.90
10149;DHT22;5115;50.920;6.376;2023-05-23T01:40:23;17.10;99.90
10149;DHT22;5115;50.920;6.376;2023-05-23T01:42:51;17.10;99.90
10149;DHT22;5115;50.920;6.376;2023-05-23T01:45:18;17.10;99.90
10149;DHT22;5115;50.920;6.376;2023-05-23T01:47:46;17.10;99.90
10149;DHT22;5115;50.920;6.376;2023-05-23T01:50:13;17.10;99.90
10149;DHT22;5115;50.920;6.376;2023-05-23T01:52:39;17.20;99.90
10149;DHT22;5115;50.920;6.376;2023-05-23T01:55:06;18.10;99.90
10149;DHT22;5115;50.920;6.376;2023-05-23T01:57:35;17.20;99.90
10149;DHT22;5115;50.920;6.376;2023-05-23T02:00:04;17.20;99.90
10149;DHT22;5115;50.920;6.376;2023-05-23T02:02:34;17.20;99.90
10149;DHT22;5115;50.920;6.376;2023-05-23T02:04:59;17.30;99.90
10149;DHT22;5115;50.920;6.376;2023-05-23T02:07:25;17.20;99.90
10149;DHT22;5115;50.920;6.376;2023-05-23T02:09:51;17.90;99.90
10149;DHT22;5115;50.920;6.376;2023-05-23T02:12:16;17.20;99.90
10149;DHT22;5115;50.920;6.376;2023-05-23T02:14:42;17.20;99.90
10149;DHT22;5115;50.920;6.376;2023-05-23T02:17:08;17.10;99.90
10149;DHT22;5115;50.920;6.376;2023-05-23T02:19:36;17.00;99.90
10149;DHT22;5115;50.920;6.376;2023-05-23T02:22:02;17.00;99.90
10149;DHT22;5115;50.920;6.376;2023-05-23T02:24:28;16.90;99.90
10149;DHT22;5115;50.920;6.376;2023-05-23T02:26:54;16.90;99.90
10149;DHT22;5115;50.920;6.376;2023-05-23T02:29:20;16.90;99.90
10149;DHT22;5115;50.920;6.376;2023-05-23T02:31:46;16.80;99.90
10149;DHT22;5115;50.920;6.376;2023-05-23T02:34:11;16.80;99.90
10149;DHT22;5115;50.920;6.376;2023-05-23T02:36:37;17.00;99.90
10149;DHT22;5115;50.920;6.376;2023-05-23T02:39:04;17.00;99.90
10149;DHT22;5115;50.920;6.376;2023-05-23T02:41:29;16.90;99.90
10149;DHT22;5115;50.920;6.376;2023-05-23T02:43:55;17.00;99.90
10149;DHT22;5115;50.920;6.376;2023-05-23T02:46:21;16.90;99.90
10149;DHT22;5115;50.920;6.376;2023-05-23T02:48:46;16.90;99.90
10149;DHT22;5115;50.920;6.376;2023-05-23T02:51:12;16.90;99.90
10149;DHT22;5115;50.920;6.376;2023-05-23T02:53:40;16.90;99.90
10149;DHT22;5115;50.920;6.376;2023-05-23T02:56:07;16.90;99.90
10149;DHT22;5115;50.920;6.376;2023-05-23T02:58:34;16.90;99.90
10149;DHT22;5115;50.920;6.376;2023-05-23T03:01:01;16.90;99.90
10149;DHT22;5115;50.920;6.376;2023-05-23T03:03:27;16.90;99.90
10149;DHT22;5115;50.920;6.376;2023-05-23T03:05:53;16.80;99.90
10149;DHT22;5115;50.920;6.376;2023-05-23T03:08:20;16.70;99.90
10149;DHT22;5115;50.920;6.376;2023-05-23T03:10:46;16.70;99.90
10149;DHT22;5115;50.920;6.376;2023-05-23T03:13:11;16.80;99.90
10149;DHT22;5115;50.920;6.376;2023-05-23T03:15:37;16.80;99.90
10149;DHT22;5115;50.920;6.376;2023-05-23T03:18:02;16.70;99.90
10149;DHT22;5115;50.920;6.376;2023-05-23T03:20:28;16.60;99.90
10149;DHT22;5115;50.920;6.376;2023-05-23T03:22:53;16.50;99.90
10149;DHT22;5115;50.920;6.376;2023-05-23T03:25:19;16.60;99.90
10149;DHT22;5115;50.920;6.376;2023-05-23T03:27:44;16.60;99.90
10149;DHT22;5115;50.920;6.376;2023-05-23T03:30:10;16.60;99.90
10149;DHT22;5115;50.920;6.376;2023-05-23T03:32:36;16.60;99.90
10149;DHT22;5115;50.920;6.376;2023-05-23T03:35:02;16.60;99.90
10149;DHT22;5115;50.920;6.376;2023-05-23T03:37:27;16.60;99.90
10149;DHT22;5115;50.920;6.376;2023-05-23T03:39:53;16.60;99.90
10149;DHT22;5115;50.920;6.376;2023-05-23T03:42:18;16.50;99.90
10149;DHT22;5115;50.920;6.376;2023-05-23T03:44:44;16.50;99.90
10149;DHT22;5115;50.920;6.376;2023-05-23T03:47:10;16.40;99.90
10149;DHT22;5115;50.920;6.376;2023-05-23T03:49:35;16.40;99.90
10149;DHT22;5115;50.920;6.376;2023-05-23T03:52:01;16.40;99.90
10149;DHT22;5115;50.920;6.376;2023-05-23T03:54:27;16.40;99.90
10149;DHT22;5115;50.920;6.376;2023-05-23T03:56:52;16.30;99.90
10149;DHT22;5115;50.920;6.376;2023-05-23T03:59:18;16.40;99.90
10149;DHT22;5115;50.920;6.376;2023-05-23T04:01:43;16.50;99.90
10149;DHT22;5115;50.920;6.376;2023-05-23T04:04:09;16.50;99.90
10149;DHT22;5115;50.920;6.376;2023-05-23T04:06:34;16.50;99.90
10149;DHT22;5115;50.920;6.376;2023-05-23T04:09:00;16.60;99.90
10149;DHT22;5115;50.920;6.376;2023-05-23T04:11:26;16.60;99.90
10149;DHT22;5115;50.920;6.376;2023-05-23T04:13:52;16.60;99.90
10149;DHT22;5115;50.920;6.376;2023-05-23T04:16:18;16.50;99.90
10149;DHT22;5115;50.920;6.376;2023-05-23T04:18:44;17.00;99.90
10149;DHT22;5115;50.920;6.376;2023-05-23T04:21:11;16.30;99.90
10149;DHT22;5115;50.920;6.376;2023-05-23T04:23:37;16.20;99.90
10149;DHT22;5115;50.920;6.376;2023-05-23T04:26:04;16.10;99.90
10149;DHT22;5115;50.920;6.376;2023-05-23T04:28:30;16.10;99.90
10149;DHT22;5115;50.920;6.376;2023-05-23T04:30:55;16.10;99.90
10149;DHT22;5115;50.920;6.376;2023-05-23T04:33:23;16.20;99.90
10149;DHT22;5115;50.920;6.376;2023-05-23T04:35:49;16.20;99.90
10149;DHT22;5115;50.920;6.376;2023-05-23T04:38:16;16.10;99.90
10149;DHT22;5115;50.920;6.376;2023-05-23T04:40:42;16.20;99.90
10149;DHT22;5115;50.920;6.376;2023-05-23T04:43:08;16.30;99.90
10149;DHT22;5115;50.920;6.376;2023-05-23T04:45:34;16.30;99.90
10149;DHT22;5115;50.920;6.376;2023-05-23T04:48:01;16.30;99.90
10149;DHT22;5115;50.920;6.376;2023-05-23T04:50:27;16.30;99.90
10149;DHT22;5115;50.920;6.376;2023-05-23T04:52:56;16.30;99.90
10149;DHT22;5115;50.920;6.376;2023-05-23T04:55:21;16.30;99.90
10149;DHT22;5115;50.920;6.376;2023-05-23T04:57:47;16.20;99.90
10149;DHT22;5115;50.920;6.376;2023-05-23T05:00:13;16.20;99.90
10149;DHT22;5115;50.920;6.376;2023-05-23T05:02:39;16.20;99.90
10149;DHT22;5115;50.920;6.376;2023-05-23T05:05:06;16.20;99.90
10149;DHT22;5115;50.920;6.376;2023-05-23T05:07:32;16.30;99.90
10149;DHT22;5115;50.920;6.376;2023-05-23T05:10:00;16.30;99.90
10149;DHT22;5115;50.920;6.376;2023-05-23T05:12:26;16.30;99.90
10149;DHT22;5115;50.920;6.376;2023-05-23T05:14:52;16.30;99.90
10149;DHT22;5115;50.920;6.376;2023-05-23T05:17:17;16.30;99.90
10149;DHT22;5115;50.920;6.376;2023-05-23T05:19:44;16.20;99.90
10149;DHT22;5115;50.920;6.376;2023-05-23T05:22:10;16.30;99.90
10149;DHT22;5115;50.920;6.376;2023-05-23T05:24:36;16.20;99.90
10149;DHT22;5115;50.920;6.376;2023-05-23T05:27:02;16.20;99.90
10149;DHT22;5115;50.920;6.376;2023-05-23T05:29:28;16.30;99.90
10149;DHT22;5115;50.920;6.376;2023-05-23T05:31:53;16.30;99.90
10149;DHT22;5115;50.920;6.376;2023-05-23T05:34:19;16.40;99.90
10149;DHT22;5115;50.920;6.376;2023-05-23T05:36:48;16.50;99.90
10149;DHT22;5115;50.920;6.376;2023-05-23T05:39:13;16.40;99.90
10149;DHT22;5115;50.920;6.376;2023-05-23T05:41:40;16.40;99.90
10149;DHT22;5115;50.920;6.376;2023-05-23T05:44:06;16.30;99.90
10149;DHT22;5115;50.920;6.376;2023-05-23T05:46:31;16.40;99.90
10149;DHT22;5115;50.920;6.376;2023-05-23T05:48:57;16.40;99.90
10149;DHT22;5115;50.920;6.376;2023-05-23T05:51:22;16.40;99.90
10149;DHT22;5115;50.920;6.376;2023-05-23T05:53:49;16.40;99.90
10149;DHT22;5115;50.920;6.376;2023-05-23T05:56:15;16.30;99.90
10149;DHT22;5115;50.920;6.376;2023-05-23T05:58:40;16.30;99.90
10149;DHT22;5115;50.920;6.376;2023-05-23T06:01:06;16.20;99.90
10149;DHT22;5115;50.920;6.376;2023-05-23T06:03:32;16.30;99.90
10149;DHT22;5115;50.920;6.376;2023-05-23T06:05:58;16.30;99.90
10149;DHT22;5115;50.920;6.376;2023-05-23T06:08:24;16.30;99.90
10149;DHT22;5115;50.920;6.376;2023-05-23T06:10:50;16.30;99.90
10149;DHT22;5115;50.920;6.376;2023-05-23T06:13:15;16.30;99.90
10149;DHT22;5115;50.920;6.376;2023-05-23T06:15:41;16.30;99.90
10149;DHT22;5115;50.920;6.376;2023-05-23T06:18:08;16.50;99.90
10149;DHT22;5115;50.920;6.376;2023-05-23T06:20:34;16.50;99.90
10149;DHT22;5115;50.920;6.376;2023-05-23T06:22:59;15.90;99.90
10149;DHT22;5115;50.920;6.376;2023-05-23T06:25:26;16.60;99.90
10149;DHT22;5115;50.920;6.376;2023-05-23T06:27:51;16.60;99.90
10149;DHT22;5115;50.920;6.376;2023-05-23T06:30:17;16.60;99.90
10149;DHT22;5115;50.920;6.376;2023-05-23T06:32:43;16.60;99.90
10149;DHT22;5115;50.920;6.376;2023-05-23T06:35:08;16.60;99.90
10149;DHT22;5115;50.920;6.376;2023-05-23T06:37:34;16.70;99.90
10149;DHT22;5115;50.920;6.376;2023-05-23T06:40:00;16.70;99.90
10149;DHT22;5115;50.920;6.376;2023-05-23T06:42:26;16.70;99.90
10149;DHT22;5115;50.920;6.376;2023-05-23T06:44:51;16.80;99.90
10149;DHT22;5115;50.920;6.376;2023-05-23T06:47:17;16.80;99.90
10149;DHT22;5115;50.920;6.376;2023-05-23T06:49:42;16.80;99.90
10149;DHT22;5115;50.920;6.376;2023-05-23T06:52:08;16.70;99.90
10149;DHT22;5115;50.920;6.376;2023-05-23T06:54:34;16.80;99.90
10149;DHT22;5115;50.920;6.376;2023-05-23T06:56:59;16.80;99.90
10149;DHT22;5115;50.920;6.376;2023-05-23T06:59:25;16.80;99.90
10149;DHT22;5115;50.920;6.376;2023-05-23T07:01:50;16.70;99.90
10149;DHT22;5115;50.920;6.376;2023-05-23T07:04:16;16.70;99.90
10149;DHT22;5115;50.920;6.376;2023-05-23T07:06:41;16.80;99.90
10149;DHT22;5115;50.920;6.376;2023-05-23T07:09:07;16.80;99.90
10149;DHT22;5115;50.920;6.376;2023-05-23T07:11:32;16.70;99.90
10149;DHT22;5115;50.920;6.376;2023-05-23T07:13:59;16.70;99.90
10149;DHT22;5115;50.920;6.376;2023-05-23T07:16:25;16.80;99.90
10149;DHT22;5115;50.920;6.376;2023-05-23T07:18:51;16.70;99.90
10149;DHT22;5115;50.920;6.376;2023-05-23T07:21:16;16.70;99.90
10149;DHT22;5115;50.920;6.376;2023-05-23T07:23:42;16.70;99.90
10149;DHT22;5115;50.920;6.376;2023-05-23T07:26:07;16.80;99.90
10149;DHT22;5115;50.920;6.376;2023-05-23T07:28:34;16.80;99.90
10149;DHT22;5115;50.920;6.376;2023-05-23T07:31:00;16.70;99.90
10149;DHT22;5115;50.920;6.376;2023-05-23T07:33:26;16.70;99.90
10149;DHT22;5115;50.920;6.376;2023-05-23T07:35:51;16.70;99.90
10149;DHT22;5115;50.920;6.376;2023-05-23T07:38:18;16.80;99.90
10149;DHT22;5115;50.920;6.376;2023-05-23T07:40:43;16.80;99.90
10149;DHT22;5115;50.920;6.376;2023-05-23T07:43:09;16.60;99.90
10149;DHT22;5115;50.920;6.376;2023-05-23T07:45:35;16.50;99.90
10149;DHT22;5115;50.920;6.376;2023-05-23T07:48:00;16.60;99.90
10149;DHT22;5115;50.920;6.376;2023-05-23T07:50:26;16.50;99.90
10149;DHT22;5115;50.920;6.376;2023-05-23T07:52:52;16.50;99.90
10149;DHT22;5115;50.920;6.376;2023-05-23T07:55:17;16.30;99.90
10149;DHT22;5115;50.920;6.376;2023-05-23T07:57:43;16.20;99.90
10149;DHT22;5115;50.920;6.376;2023-05-23T08:00:09;16.20;99.90
10149;DHT22;5115;50.920;6.376;2023-05-23T08:02:36;16.20;99.90
10149;DHT22;5115;50.920;6.376;2023-05-23T08:05:02;16.20;99.90
10149;DHT22;5115;50.920;6.376;2023-05-23T08:07:27;16.20;99.90
10149;DHT22;5115;50.920;6.376;2023-05-23T08:09:53;16.20;99.90
10149;DHT22;5115;50.920;6.376;2023-05-23T08:12:18;16.20;99.90
10149;DHT22;5115;50.920;6.376;2023-05-23T08:14:44;16.20;99.90
10149;DHT22;5115;50.920;6.376;2023-05-23T08:17:11;16.10;99.90
10149;DHT22;5115;50.920;6.376;2023-05-23T08:19:37;16.10;99.90
10149;DHT22;5115;50.920;6.376;2023-05-23T08:22:03;16.00;99.90
10149;DHT22;5115;50.920;6.376;2023-05-23T08:24:29;16.00;99.90
10149;DHT22;5115;50.920;6.376;2023-05-23T08:26:55;15.90;99.90
10149;DHT22;5115;50.920;6.376;2023-05-23T08:29:20;16.00;99.90
10149;DHT22;5115;50.920;6.376;2023-05-23T08:31:46;16.00;99.90
10149;DHT22;5115;50.920;6.376;2023-05-23T08:34:49;16.00;99.90
10149;DHT22;5115;50.920;6.376;2023-05-23T08:37:15;16.00;99.90
10149;DHT22;5115;50.920;6.376;2023-05-23T08:39:40;16.00;99.90
10149;DHT22;5115;50.920;6.376;2023-05-23T08:42:06;16.00;99.90
10149;DHT22;5115;50.920;6.376;2023-05-23T08:44:32;16.00;99.90
10149;DHT22;5115;50.920;6.376;2023-05-23T08:47:01;16.00;99.90
10149;DHT22;5115;50.920;6.376;2023-05-23T08:49:29;16.00;99.90
10149;DHT22;5115;50.920;6.376;2023-05-23T08:52:00;15.90;99.90
10149;DHT22;5115;50.920;6.376;2023-05-23T08:54:27;15.90;99.90
10149;DHT22;5115;50.920;6.376;2023-05-23T08:56:53;16.70;99.90
10149;DHT22;5115;50.920;6.376;2023-05-23T08:59:20;15.80;99.90
10149;DHT22;5115;50.920;6.376;2023-05-23T09:01:47;15.80;99.90
10149;DHT22;5115;50.920;6.376;2023-05-23T09:04:14;15.70;99.90
10149;DHT22;5115;50.920;6.376;2023-05-23T09:06:39;15.70;99.90
10149;DHT22;5115;50.920;6.376;2023-05-23T09:09:05;15.90;99.90
10149;DHT22;5115;50.920;6.376;2023-05-23T09:11:31;15.80;99.90
10149;DHT22;5115;50.920;6.376;2023-05-23T09:13:58;15.80;99.90
10149;DHT22;5115;50.920;6.376;2023-05-23T09:16:31;15.60;99.90
10149;DHT22;5115;50.920;6.376;2023-05-23T09:18:57;15.50;99.90
10149;DHT22;5115;50.920;6.376;2023-05-23T09:21:23;15.60;99.90
10149;DHT22;5115;50.920;6.376;2023-05-23T09:23:49;15.80;99.90
10149;DHT22;5115;50.920;6.376;2023-05-23T09:26:14;16.00;99.90
10149;DHT22;5115;50.920;6.376;2023-05-23T09:28:41;16.20;99.90
10149;DHT22;5115;50.920;6.376;2023-05-23T09:31:07;16.40;99.90
10149;DHT22;5115;50.920;6.376;2023-05-23T09:33:46;16.50;99.90
10149;DHT22;5115;50.920;6.376;2023-05-23T09:36:15;16.60;99.90
10149;DHT22;5115;50.920;6.376;2023-05-23T09:38:43;16.40;99.90
10149;DHT22;5115;50.920;6.376;2023-05-23T09:41:09;16.40;99.90
10149;DHT22;5115;50.920;6.376;2023-05-23T09:43:39;16.20;99.90
10149;DHT22;5115;50.920;6.376;2023-05-23T09:46:12;16.20;99.90
10149;DHT22;5115;50.920;6.376;2023-05-23T09:48:38;16.30;99.90
10149;DHT22;5115;50.920;6.376;2023-05-23T09:51:08;16.70;99.90
10149;DHT22;5115;50.920;6.376;2023-05-23T09:53:35;16.90;99.90
10149;DHT22;5115;50.920;6.376;2023-05-23T09:56:04;17.10;99.90
10149;DHT22;5115;50.920;6.376;2023-05-23T09:58:32;17.20;99.90
10149;DHT22;5115;50.920;6.376;2023-05-23T10:00:59;17.20;99.90
10149;DHT22;5115;50.920;6.376;2023-05-23T10:03:54;17.30;99.90
10149;DHT22;5115;50.920;6.376;2023-05-23T10:06:26;17.40;99.90
10149;DHT22;5115;50.920;6.376;2023-05-23T10:09:02;17.50;99.90
10149;DHT22;5115;50.920;6.376;2023-05-23T10:14:08;17.80;99.90
10149;DHT22;5115;50.920;6.376;2023-05-23T10:16:58;17.70;99.90
10149;DHT22;5115;50.920;6.376;2023-05-23T10:19:34;17.40;99.90
10149;DHT22;5115;50.920;6.376;2023-05-23T10:22:03;17.70;99.90
10149;DHT22;5115;50.920;6.376;2023-05-23T10:24:31;18.00;99.90
10149;DHT22;5115;50.920;6.376;2023-05-23T10:26:58;18.30;99.90
10149;DHT22;5115;50.920;6.376;2023-05-23T10:29:24;18.20;99.90
10149;DHT22;5115;50.920;6.376;2023-05-23T10:31:51;18.40;99.90
10149;DHT22;5115;50.920;6.376;2023-05-23T10:34:36;18.50;99.90
10149;DHT22;5115;50.920;6.376;2023-05-23T10:37:06;18.50;99.90
10149;DHT22;5115;50.920;6.376;2023-05-23T10:45:13;19.20;99.90
10149;DHT22;5115;50.920;6.376;2023-05-23T10:47:39;19.40;99.90
10149;DHT22;5115;50.920;6.376;2023-05-23T10:50:05;19.80;99.90
10149;DHT22;5115;50.920;6.376;2023-05-23T10:52:38;20.20;99.90
10149;DHT22;5115;50.920;6.376;2023-05-23T10:55:14;20.70;99.90
10149;DHT22;5115;50.920;6.376;2023-05-23T10:57:42;21.00;99.90
10149;DHT22;5115;50.920;6.376;2023-05-23T11:00:15;21.00;99.90
10149;DHT22;5115;50.920;6.376;2023-05-23T11:02:54;20.80;99.90
10149;DHT22;5115;50.920;6.376;2023-05-23T11:05:26;20.60;99.90
10149;DHT22;5115;50.920;6.376;2023-05-23T11:08:12;19.90;99.90
10149;DHT22;5115;50.920;6.376;2023-05-23T11:11:02;20.40;99.90
10149;DHT22;5115;50.920;6.376;2023-05-23T11:16:29;19.60;99.90
10149;DHT22;5115;50.920;6.376;2023-05-23T11:19:25;19.40;99.90
10149;DHT22;5115;50.920;6.376;2023-05-23T11:21:58;19.00;99.90
10149;DHT22;5115;50.920;6.376;2023-05-23T11:24:55;18.80;99.90
10149;DHT22;5115;50.920;6.376;2023-05-23T11:27:36;18.70;99.90
10149;DHT22;5115;50.920;6.376;2023-05-23T11:30:14;18.50;99.90
10149;DHT22;5115;50.920;6.376;2023-05-23T11:32:46;18.50;99.90
10149;DHT22;5115;50.920;6.376;2023-05-23T11:35:16;18.50;99.90
10149;DHT22;5115;50.920;6.376;2023-05-23T11:37:42;18.40;99.90
10149;DHT22;5115;50.920;6.376;2023-05-23T11:42:57;18.60;99.90
10149;DHT22;5115;50.920;6.376;2023-05-23T11:45:24;18.50;99.90
10149;DHT22;5115;50.920;6.376;2023-05-23T11:47:51;18.50;99.90
10149;DHT22;5115;50.920;6.376;2023-05-23T11:50:17;18.30;99.90
10149;DHT22;5115;50.920;6.376;2023-05-23T11:52:45;18.30;99.90
10149;DHT22;5115;50.920;6.376;2023-05-23T11:55:19;18.30;99.90
10149;DHT22;5115;50.920;6.376;2023-05-23T11:57:45;18.40;99.90
10149;DHT22;5115;50.920;6.376;2023-05-23T12:00:12;18.50;99.90
10149;DHT22;5115;50.920;6.376;2023-05-23T12:02:39;18.50;99.90
10149;DHT22;5115;50.920;6.376;2023-05-23T12:05:13;18.60;99.90
10149;DHT22;5115;50.920;6.376;2023-05-23T12:07:45;18.70;99.90
10149;DHT22;5115;50.920;6.376;2023-05-23T12:10:13;18.60;99.90
10149;DHT22;5115;50.920;6.376;2023-05-23T12:12:40;18.50;99.90
10149;DHT22;5115;50.920;6.376;2023-05-23T12:15:11;18.70;99.90
10149;DHT22;5115;50.920;6.376;2023-05-23T12:17:37;18.70;99.90
10149;DHT22;5115;50.920;6.376;2023-05-23T12:20:07;18.60;99.90
10149;DHT22;5115;50.920;6.376;2023-05-23T12:22:33;18.60;99.90
10149;DHT22;5115;50.920;6.376;2023-05-23T12:24:59;18.50;99.90
10149;DHT22;5115;50.920;6.376;2023-05-23T12:27:35;18.70;99.90
10149;DHT22;5115;50.920;6.376;2023-05-23T12:30:09;18.80;99.90
10149;DHT22;5115;50.920;6.376;2023-05-23T12:32:42;19.00;99.90
10149;DHT22;5115;50.920;6.376;2023-05-23T12:35:09;19.10;99.90
10149;DHT22;5115;50.920;6.376;2023-05-23T12:37:55;19.20;99.90
10149;DHT22;5115;50.920;6.376;2023-05-23T12:40:21;19.10;99.90
10149;DHT22;5115;50.920;6.376;2023-05-23T12:42:56;19.20;99.90
10149;DHT22;5115;50.920;6.376;2023-05-23T12:45:23;19.30;99.90
10149;DHT22;5115;50.920;6.376;2023-05-23T12:47:49;19.30;99.90
10149;DHT22;5115;50.920;6.376;2023-05-23T12:50:15;19.70;99.90
10149;DHT22;5115;50.920;6.376;2023-05-23T12:52:40;19.70;99.90
10149;DHT22;5115;50.920;6.376;2023-05-23T12:55:07;19.80;99.90
10149;DHT22;5115;50.920;6.376;2023-05-23T12:57:33;19.90;99.90
10149;DHT22;5115;50.920;6.376;2023-05-23T13:00:00;19.60;99.90
10149;DHT22;5115;50.920;6.376;2023-05-23T13:02:26;19.50;99.90
10149;DHT22;5115;50.920;6.376;2023-05-23T13:04:52;19.50;99.90
10149;DHT22;5115;50.920;6.376;2023-05-23T13:07:18;19.50;99.90
10149;DHT22;5115;50.920;6.376;2023-05-23T13:09:43;19.70;99.90
10149;DHT22;5115;50.920;6.376;2023-05-23T13:12:09;19.90;99.90
10149;DHT22;5115;50.920;6.376;2023-05-23T13:14:36;19.70;99.90
10149;DHT22;5115;50.920;6.376;2023-05-23T13:17:02;19.60;99.90
10149;DHT22;5115;50.920;6.376;2023-05-23T13:19:27;19.90;99.90
10149;DHT22;5115;50.920;6.376;2023-05-23T13:21:53;19.60;99.90
10149;DHT22;5115;50.920;6.376;2023-05-23T13:24:19;19.70;99.90
10149;DHT22;5115;50.920;6.376;2023-05-23T13:26:46;19.70;99.90
10149;DHT22;5115;50.920;6.376;2023-05-23T13:29:11;19.60;99.90
10149;DHT22;5115;50.920;6.376;2023-05-23T13:31:37;19.60;99.90
10149;DHT22;5115;50.920;6.376;2023-05-23T13:34:02;19.70;99.90
10149;DHT22;5115;50.920;6.376;2023-05-23T13:36:28;19.90;99.90
10149;DHT22;5115;50.920;6.376;2023-05-23T13:38:54;19.90;99.90
10149;DHT22;5115;50.920;6.376;2023-05-23T13:41:19;19.90;99.90
10149;DHT22;5115;50.920;6.376;2023-05-23T13:43:45;19.90;99.90
10149;DHT22;5115;50.920;6.376;2023-05-23T13:46:11;20.00;99.90
10149;DHT22;5115;50.920;6.376;2023-05-23T13:48:37;20.00;99.90
10149;DHT22;5115;50.920;6.376;2023-05-23T13:51:03;19.80;99.90
10149;DHT22;5115;50.920;6.376;2023-05-23T13:53:30;19.70;99.90
10149;DHT22;5115;50.920;6.376;2023-05-23T13:55:55;20.40;99.90
10149;DHT22;5115;50.920;6.376;2023-05-23T13:58:21;19.80;99.90
10149;DHT22;5115;50.920;6.376;2023-05-23T14:00:47;19.70;99.90
10149;DHT22;5115;50.920;6.376;2023-05-23T14:03:13;19.60;99.90
10149;DHT22;5115;50.920;6.376;2023-05-23T14:05:40;19.60;99.90
10149;DHT22;5115;50.920;6.376;2023-05-23T14:08:05;19.80;99.90
10149;DHT22;5115;50.920;6.376;2023-05-23T14:10:31;19.80;99.90
10149;DHT22;5115;50.920;6.376;2023-05-23T14:12:59;19.80;99.90
10149;DHT22;5115;50.920;6.376;2023-05-23T14:15:25;19.60;99.90
10149;DHT22;5115;50.920;6.376;2023-05-23T14:17:52;19.60;99.90
10149;DHT22;5115;50.920;6.376;2023-05-23T14:20:20;19.80;99.90
10149;DHT22;5115;50.920;6.376;2023-05-23T14:22:46;19.80;99.90
10149;DHT22;5115;50.920;6.376;2023-05-23T14:25:12;20.00;99.90
10149;DHT22;5115;50.920;6.376;2023-05-23T14:27:38;20.00;99.90
10149;DHT22;5115;50.920;6.376;2023-05-23T14:30:05;20.00;99.90
10149;DHT22;5115;50.920;6.376;2023-05-23T14:32:31;20.20;99.90
10149;DHT22;5115;50.920;6.376;2023-05-23T14:35:03;20.00;99.90
10149;DHT22;5115;50.920;6.376;2023-05-23T14:37:28;20.20;99.90
10149;DHT22;5115;50.920;6.376;2023-05-23T14:39:54;20.30;99.90
10149;DHT22;5115;50.920;6.376;2023-05-23T14:42:20;20.20;99.90
10149;DHT22;5115;50.920;6.376;2023-05-23T14:44:45;20.10;99.90
10149;DHT22;5115;50.920;6.376;2023-05-23T14:47:11;20.00;99.90
10149;DHT22;5115;50.920;6.376;2023-05-23T14:49:37;19.90;99.90
10149;DHT22;5115;50.920;6.376;2023-05-23T14:52:03;20.00;99.90
10149;DHT22;5115;50.920;6.376;2023-05-23T14:54:28;20.00;99.90
10149;DHT22;5115;50.920;6.376;2023-05-23T14:56:54;19.80;99.90
10149;DHT22;5115;50.920;6.376;2023-05-23T14:59:21;19.90;99.90
10149;DHT22;5115;50.920;6.376;2023-05-23T15:01:46;19.90;99.90
10149;DHT22;5115;50.920;6.376;2023-05-23T15:04:12;19.80;99.90
10149;DHT22;5115;50.920;6.376;2023-05-23T15:06:38;19.50;99.90
10149;DHT22;5115;50.920;6.376;2023-05-23T15:09:05;19.40;99.90
10149;DHT22;5115;50.920;6.376;2023-05-23T15:11:31;19.40;99.90
10149;DHT22;5115;50.920;6.376;2023-05-23T15:13:59;19.50;99.90
10149;DHT22;5115;50.920;6.376;2023-05-23T15:16:25;19.50;99.90
10149;DHT22;5115;50.920;6.376;2023-05-23T15:18:51;19.60;99.90
10149;DHT22;5115;50.920;6.376;2023-05-23T15:21:16;19.50;99.90
10149;DHT22;5115;50.920;6.376;2023-05-23T15:23:42;19.40;99.90
10149;DHT22;5115;50.920;6.376;2023-05-23T15:26:07;19.40;99.90
10149;DHT22;5115;50.920;6.376;2023-05-23T15:28:33;19.50;99.90
10149;DHT22;5115;50.920;6.376;2023-05-23T15:30:58;19.40;99.90
10149;DHT22;5115;50.920;6.376;2023-05-23T15:33:24;19.50;99.90
10149;DHT22;5115;50.920;6.376;2023-05-23T15:35:50;19.50;99.90
10149;DHT22;5115;50.920;6.376;2023-05-23T15:38:16;19.50;99.90
10149;DHT22;5115;50.920;6.376;2023-05-23T15:40:41;19.60;99.90
10149;DHT22;5115;50.920;6.376;2023-05-23T15:43:07;19.40;99.90
10149;DHT22;5115;50.920;6.376;2023-05-23T15:45:32;19.30;99.90
10149;DHT22;5115;50.920;6.376;2023-05-23T15:47:58;19.20;99.90
10149;DHT22;5115;50.920;6.376;2023-05-23T15:50:23;19.20;99.90
10149;DHT22;5115;50.920;6.376;2023-05-23T15:52:49;18.80;99.90
10149;DHT22;5115;50.920;6.376;2023-05-23T15:55:14;18.80;99.90
10149;DHT22;5115;50.920;6.376;2023-05-23T15:57:40;18.80;99.90
10149;DHT22;5115;50.920;6.376;2023-05-23T16:00:06;19.00;99.90
10149;DHT22;5115;50.920;6.376;2023-05-23T16:02:32;19.10;99.90
10149;DHT22;5115;50.920;6.376;2023-05-23T16:04:57;19.10;99.90
10149;DHT22;5115;50.920;6.376;2023-05-23T16:07:24;19.10;99.90
10149;DHT22;5115;50.920;6.376;2023-05-23T16:09:50;19.00;99.90
10149;DHT22;5115;50.920;6.376;2023-05-23T16:12:15;18.70;99.90